sensor_id;sensor_type;location;lat;lon;timestamp;pressure;altitude;pressure_sealevel;temperature;humidity
70468;BME280;57934;51.532;7.684;2024-01-06T00:02:25;98981.19;;;5.57;100.00
70468;BME280;57934;51.532;7.684;2024-01-06T00:04:52;98980.22;;;5.65;100.00
70468;BME280;57934;51.532;7.684;2024-01-06T00:07:18;98985.22;;;5.60;100.00
70468;BME280;57934;51.532;7.684;2024-01-06T00:09:44;98990.50;;;5.66;100.00
70468;BME280;57934;51.532;7.684;2024-01-06T00:12:10;98990.25;;;5.61;100.00
70468;BME280;57934;51.532;7.684;2024-01-06T00:14:36;99000.31;;;5.64;100.00
70468;BME280;57934;51.532;7.684;2024-01-06T00:17:03;99000.56;;;5.69;100.00
70468;BME280;57934;51.532;7.684;2024-01-06T00:19:29;98993.28;;;5.65;100.00
70468;BME280;57934;51.532;7.684;2024-01-06T00:21:55;99000.94;;;5.66;100.00
70468;BME280;57934;51.532;7.684;2024-01-06T00:24:21;99002.13;;;5.64;100.00
70468;BME280;57934;51.532;7.684;2024-01-06T00:26:48;99009.97;;;5.64;100.00
70468;BME280;57934;51.532;7.684;2024-01-06T00:29:14;99009.13;;;5.57;100.00
70468;BME280;57934;51.532;7.684;2024-01-06T00:31:40;99007.75;;;5.61;100.00
70468;BME280;57934;51.532;7.684;2024-01-06T00:34:06;99012.59;;;5.64;100.00
70468;BME280;57934;51.532;7.684;2024-01-06T00:36:32;99012.78;;;5.62;100.00
70468;BME280;57934;51.532;7.684;2024-01-06T00:38:58;99017.78;;;5.57;100.00
70468;BME280;57934;51.532;7.684;2024-01-06T00:41:24;99010.94;;;5.56;100.00
70468;BME280;57934;51.532;7.684;2024-01-06T00:43:50;99010.53;;;5.53;100.00
70468;BME280;57934;51.532;7.684;2024-01-06T00:46:16;99025.66;;;5.64;100.00
70468;BME280;57934;51.532;7.684;2024-01-06T00:48:42;99016.81;;;5.58;100.00
70468;BME280;57934;51.532;7.684;2024-01-06T00:51:09;99020.66;;;5.62;100.00
70468;BME280;57934;51.532;7.684;2024-01-06T00:53:35;99020.78;;;5.54;100.00
70468;BME280;57934;51.532;7.684;2024-01-06T00:56:01;99014.94;;;5.52;100.00
70468;BME280;57934;51.532;7.684;2024-01-06T00:58:27;99016.75;;;5.52;100.00
70468;BME280;57934;51.532;7.684;2024-01-06T01:00:53;99023.38;;;5.54;100.00
70468;BME280;57934;51.532;7.684;2024-01-06T01:03:19;99025.75;;;5.42;100.00
70468;BME280;57934;51.532;7.684;2024-01-06T01:05:45;99028.56;;;5.41;100.00
70468;BME280;57934;51.532;7.684;2024-01-06T01:08:11;99024.13;;;5.41;100.00
70468;BME280;57934;51.532;7.684;2024-01-06T01:10:37;99031.97;;;5.41;100.00
70468;BME280;57934;51.532;7.684;2024-01-06T01:13:04;99030.75;;;5.44;100.00
70468;BME280;57934;51.532;7.684;2024-01-06T01:15:32;99031.63;;;5.51;100.00
70468;BME280;57934;51.532;7.684;2024-01-06T01:17:58;99028.63;;;5.54;100.00
70468;BME280;57934;51.532;7.684;2024-01-06T01:20:24;99035.06;;;5.52;100.00
70468;BME280;57934;51.532;7.684;2024-01-06T01:22:50;99042.84;;;5.45;100.00
70468;BME280;57934;51.532;7.684;2024-01-06T01:25:16;99041.22;;;5.44;100.00
70468;BME280;57934;51.532;7.684;2024-01-06T01:27:43;99040.41;;;5.43;100.00
70468;BME280;57934;51.532;7.684;2024-01-06T01:30:09;99044.09;;;5.49;100.00
70468;BME280;57934;51.532;7.684;2024-01-06T01:32:37;99050.06;;;5.43;100.00
70468;BME280;57934;51.532;7.684;2024-01-06T01:35:03;99056.69;;;5.39;100.00
70468;BME280;57934;51.532;7.684;2024-01-06T01:37:29;99051.72;;;5.50;100.00
70468;BME280;57934;51.532;7.684;2024-01-06T01:39:55;99061.09;;;5.38;100.00
70468;BME280;57934;51.532;7.684;2024-01-06T01:42:22;99061.75;;;5.47;100.00
70468;BME280;57934;51.532;7.684;2024-01-06T01:44:48;99061.97;;;5.45;100.00
70468;BME280;57934;51.532;7.684;2024-01-06T01:47:14;99071.19;;;5.41;100.00
70468;BME280;57934;51.532;7.684;2024-01-06T01:49:47;99059.56;;;5.50;100.00
70468;BME280;57934;51.532;7.684;2024-01-06T01:52:14;99063.78;;;5.45;100.00
70468;BME280;57934;51.532;7.684;2024-01-06T01:54:41;99062.72;;;5.39;100.00
70468;BME280;57934;51.532;7.684;2024-01-06T01:57:08;99067.50;;;5.36;100.00
70468;BME280;57934;51.532;7.684;2024-01-06T01:59:36;99066.75;;;5.42;100.00
70468;BME280;57934;51.532;7.684;2024-01-06T02:02:02;99073.00;;;5.41;100.00
70468;BME280;57934;51.532;7.684;2024-01-06T02:04:28;99070.19;;;5.42;100.00
70468;BME280;57934;51.532;7.684;2024-01-06T02:06:54;99070.81;;;5.44;100.00
70468;BME280;57934;51.532;7.684;2024-01-06T02:09:21;99067.78;;;5.47;100.00
70468;BME280;57934;51.532;7.684;2024-01-06T02:11:48;99074.03;;;5.46;100.00
70468;BME280;57934;51.532;7.684;2024-01-06T02:14:15;99071.59;;;5.45;100.00
70468;BME280;57934;51.532;7.684;2024-01-06T02:16:41;99081.50;;;5.49;100.00
70468;BME280;57934;51.532;7.684;2024-01-06T02:19:11;99085.47;;;5.45;100.00
70468;BME280;57934;51.532;7.684;2024-01-06T02:21:41;99079.16;;;5.61;100.00
70468;BME280;57934;51.532;7.684;2024-01-06T02:24:08;99076.09;;;5.51;100.00
70468;BME280;57934;51.532;7.684;2024-01-06T02:26:34;99080.72;;;5.56;100.00
70468;BME280;57934;51.532;7.684;2024-01-06T02:29:00;99085.09;;;5.48;100.00
70468;BME280;57934;51.532;7.684;2024-01-06T02:31:27;99094.97;;;5.53;100.00
70468;BME280;57934;51.532;7.684;2024-01-06T02:33:53;99096.94;;;5.44;100.00
70468;BME280;57934;51.532;7.684;2024-01-06T02:36:19;99097.75;;;5.45;100.00
70468;BME280;57934;51.532;7.684;2024-01-06T02:38:45;99098.34;;;5.47;100.00
70468;BME280;57934;51.532;7.684;2024-01-06T02:41:11;99103.78;;;5.45;100.00
70468;BME280;57934;51.532;7.684;2024-01-06T02:43:38;99105.16;;;5.41;100.00
70468;BME280;57934;51.532;7.684;2024-01-06T02:46:04;99107.50;;;5.36;100.00
70468;BME280;57934;51.532;7.684;2024-01-06T02:48:30;99109.31;;;5.36;100.00
70468;BME280;57934;51.532;7.684;2024-01-06T02:50:56;99118.22;;;5.41;100.00
70468;BME280;57934;51.532;7.684;2024-01-06T02:53:22;99117.59;;;5.39;100.00
70468;BME280;57934;51.532;7.684;2024-01-06T02:55:48;99122.66;;;5.41;100.00
70468;BME280;57934;51.532;7.684;2024-01-06T02:58:15;99118.59;;;5.38;100.00
70468;BME280;57934;51.532;7.684;2024-01-06T03:00:41;99122.66;;;5.41;100.00
70468;BME280;57934;51.532;7.684;2024-01-06T03:03:07;99119.84;;;5.42;100.00
70468;BME280;57934;51.532;7.684;2024-01-06T03:05:33;99118.59;;;5.38;100.00
70468;BME280;57934;51.532;7.684;2024-01-06T03:07:59;99128.84;;;5.40;100.00
70468;BME280;57934;51.532;7.684;2024-01-06T03:10:26;99131.09;;;5.43;100.00
70468;BME280;57934;51.532;7.684;2024-01-06T03:12:52;99134.53;;;5.43;100.00
70468;BME280;57934;51.532;7.684;2024-01-06T03:15:18;99130.94;;;5.44;100.00
70468;BME280;57934;51.532;7.684;2024-01-06T03:17:44;99134.88;;;5.40;100.00
70468;BME280;57934;51.532;7.684;2024-01-06T03:20:10;99139.69;;;5.37;100.00
70468;BME280;57934;51.532;7.684;2024-01-06T03:22:36;99140.69;;;5.36;100.00
70468;BME280;57934;51.532;7.684;2024-01-06T03:25:04;99138.88;;;5.36;100.00
70468;BME280;57934;51.532;7.684;2024-01-06T03:27:31;99140.75;;;5.42;100.00
70468;BME280;57934;51.532;7.684;2024-01-06T03:29:57;99138.06;;;5.36;100.00
70468;BME280;57934;51.532;7.684;2024-01-06T03:32:23;99146.63;;;5.44;100.00
70468;BME280;57934;51.532;7.684;2024-01-06T03:34:50;99152.66;;;5.45;100.00
70468;BME280;57934;51.532;7.684;2024-01-06T03:37:16;99152.72;;;5.52;100.00
70468;BME280;57934;51.532;7.684;2024-01-06T03:39:42;99151.44;;;5.47;100.00
70468;BME280;57934;51.532;7.684;2024-01-06T03:42:08;99155.44;;;5.43;100.00
70468;BME280;57934;51.532;7.684;2024-01-06T03:44:34;99163.53;;;5.48;100.00
70468;BME280;57934;51.532;7.684;2024-01-06T03:47:00;99162.16;;;5.53;100.00
70468;BME280;57934;51.532;7.684;2024-01-06T03:49:27;99167.38;;;5.53;100.00
70468;BME280;57934;51.532;7.684;2024-01-06T03:51:53;99163.72;;;5.47;100.00
70468;BME280;57934;51.532;7.684;2024-01-06T03:54:19;99169.72;;;5.41;100.00
70468;BME280;57934;51.532;7.684;2024-01-06T03:56:45;99175.41;;;5.30;100.00
70468;BME280;57934;51.532;7.684;2024-01-06T03:59:11;99184.31;;;5.35;100.00
70468;BME280;57934;51.532;7.684;2024-01-06T04:01:37;99187.94;;;5.34;100.00
70468;BME280;57934;51.532;7.684;2024-01-06T04:04:03;99189.03;;;5.25;100.00
70468;BME280;57934;51.532;7.684;2024-01-06T04:06:30;99182.88;;;5.11;100.00
70468;BME280;57934;51.532;7.684;2024-01-06T04:08:58;99186.47;;;5.10;100.00
70468;BME280;57934;51.532;7.684;2024-01-06T04:11:24;99188.47;;;5.08;100.00
70468;BME280;57934;51.532;7.684;2024-01-06T04:13:50;99185.03;;;5.08;100.00
70468;BME280;57934;51.532;7.684;2024-01-06T04:16:16;99184.44;;;5.06;100.00
70468;BME280;57934;51.532;7.684;2024-01-06T04:18:42;99187.22;;;5.04;100.00
70468;BME280;57934;51.532;7.684;2024-01-06T04:21:08;99183.69;;;5.12;100.00
70468;BME280;57934;51.532;7.684;2024-01-06T04:23:34;99190.47;;;5.06;100.00
70468;BME280;57934;51.532;7.684;2024-01-06T04:26:00;99184.69;;;5.11;100.00
70468;BME280;57934;51.532;7.684;2024-01-06T04:28:27;99191.28;;;5.07;100.00
70468;BME280;57934;51.532;7.684;2024-01-06T04:30:53;99195.75;;;5.13;100.00
70468;BME280;57934;51.532;7.684;2024-01-06T04:33:20;99194.69;;;5.07;100.00
70468;BME280;57934;51.532;7.684;2024-01-06T04:35:46;99203.19;;;4.94;100.00
70468;BME280;57934;51.532;7.684;2024-01-06T04:38:12;99202.81;;;4.97;100.00
70468;BME280;57934;51.532;7.684;2024-01-06T04:40:38;99204.63;;;4.97;100.00
70468;BME280;57934;51.532;7.684;2024-01-06T04:43:04;99207.31;;;5.03;100.00
70468;BME280;57934;51.532;7.684;2024-01-06T04:45:30;99210.72;;;5.04;100.00
70468;BME280;57934;51.532;7.684;2024-01-06T04:47:56;99214.16;;;5.05;100.00
70468;BME280;57934;51.532;7.684;2024-01-06T04:50:22;99214.41;;;5.10;100.00
70468;BME280;57934;51.532;7.684;2024-01-06T04:52:48;99215.22;;;5.10;100.00
70468;BME280;57934;51.532;7.684;2024-01-06T04:55:14;99212.47;;;4.97;100.00
70468;BME280;57934;51.532;7.684;2024-01-06T04:57:41;99227.97;;;4.98;100.00
70468;BME280;57934;51.532;7.684;2024-01-06T05:00:07;99222.19;;;5.03;100.00
70468;BME280;57934;51.532;7.684;2024-01-06T05:02:34;99222.97;;;5.03;100.00
70468;BME280;57934;51.532;7.684;2024-01-06T05:05:00;99237.13;;;4.94;100.00
70468;BME280;57934;51.532;7.684;2024-01-06T05:07:26;99234.06;;;4.91;100.00
70468;BME280;57934;51.532;7.684;2024-01-06T05:09:52;99246.06;;;5.00;100.00
70468;BME280;57934;51.532;7.684;2024-01-06T05:12:18;99241.47;;;5.02;100.00
70468;BME280;57934;51.532;7.684;2024-01-06T05:14:44;99249.84;;;4.97;100.00
70468;BME280;57934;51.532;7.684;2024-01-06T05:17:10;99254.38;;;4.89;100.00
70468;BME280;57934;51.532;7.684;2024-01-06T05:19:36;99254.00;;;4.77;100.00
70468;BME280;57934;51.532;7.684;2024-01-06T05:22:03;99257.59;;;4.76;100.00
70468;BME280;57934;51.532;7.684;2024-01-06T05:24:29;99260.22;;;4.76;100.00
70468;BME280;57934;51.532;7.684;2024-01-06T05:26:55;99264.53;;;4.69;100.00
70468;BME280;57934;51.532;7.684;2024-01-06T05:29:21;99265.78;;;4.73;100.00
70468;BME280;57934;51.532;7.684;2024-01-06T05:31:47;99264.53;;;4.69;100.00
70468;BME280;57934;51.532;7.684;2024-01-06T05:34:15;99270.31;;;4.79;100.00
70468;BME280;57934;51.532;7.684;2024-01-06T05:36:41;99271.03;;;4.58;100.00
70468;BME280;57934;51.532;7.684;2024-01-06T05:39:07;99274.72;;;4.64;100.00
70468;BME280;57934;51.532;7.684;2024-01-06T05:41:38;99276.34;;;4.65;100.00
70468;BME280;57934;51.532;7.684;2024-01-06T05:44:05;99280.91;;;4.63;100.00
70468;BME280;57934;51.532;7.684;2024-01-06T05:46:31;99281.91;;;4.62;100.00
70468;BME280;57934;51.532;7.684;2024-01-06T05:48:58;99283.09;;;4.74;100.00
70468;BME280;57934;51.532;7.684;2024-01-06T05:51:25;99277.44;;;4.70;100.00
70468;BME280;57934;51.532;7.684;2024-01-06T05:53:51;99282.09;;;4.60;100.00
70468;BME280;57934;51.532;7.684;2024-01-06T05:56:24;99292.25;;;4.55;100.00
70468;BME280;57934;51.532;7.684;2024-01-06T05:58:52;99289.84;;;4.53;100.00
70468;BME280;57934;51.532;7.684;2024-01-06T06:01:19;99296.03;;;4.52;100.00
70468;BME280;57934;51.532;7.684;2024-01-06T06:03:48;99291.91;;;4.58;100.00
70468;BME280;57934;51.532;7.684;2024-01-06T06:06:15;99296.47;;;4.56;100.00
70468;BME280;57934;51.532;7.684;2024-01-06T06:08:44;99308.03;;;4.62;100.00
70468;BME280;57934;51.532;7.684;2024-01-06T06:11:11;99307.03;;;4.63;100.00
70468;BME280;57934;51.532;7.684;2024-01-06T06:13:38;99302.81;;;4.62;100.00
70468;BME280;57934;51.532;7.684;2024-01-06T06:16:06;99305.88;;;4.65;100.00
70468;BME280;57934;51.532;7.684;2024-01-06T06:18:32;99305.88;;;4.65;100.00
70468;BME280;57934;51.532;7.684;2024-01-06T06:20:59;99311.44;;;4.62;100.00
70468;BME280;57934;51.532;7.684;2024-01-06T06:23:26;99313.00;;;4.71;100.00
70468;BME280;57934;51.532;7.684;2024-01-06T06:25:54;99316.75;;;4.69;100.00
70468;BME280;57934;51.532;7.684;2024-01-06T06:28:20;99312.16;;;4.56;100.00
70468;BME280;57934;51.532;7.684;2024-01-06T06:30:46;99312.06;;;4.49;100.00
70468;BME280;57934;51.532;7.684;2024-01-06T06:33:12;99318.38;;;4.55;100.00
70468;BME280;57934;51.532;7.684;2024-01-06T06:35:38;99320.81;;;4.57;100.00
70468;BME280;57934;51.532;7.684;2024-01-06T06:38:05;99324.69;;;4.61;100.00
70468;BME280;57934;51.532;7.684;2024-01-06T06:40:31;99339.91;;;4.72;100.00
70468;BME280;57934;51.532;7.684;2024-01-06T06:42:57;99343.63;;;4.77;100.00
70468;BME280;57934;51.532;7.684;2024-01-06T06:45:23;99351.69;;;4.68;100.00
70468;BME280;57934;51.532;7.684;2024-01-06T06:47:50;99353.97;;;4.71;100.00
70468;BME280;57934;51.532;7.684;2024-01-06T06:50:17;99354.03;;;4.63;100.00
70468;BME280;57934;51.532;7.684;2024-01-06T06:52:44;99362.59;;;4.57;100.00
70468;BME280;57934;51.532;7.684;2024-01-06T06:55:10;99368.53;;;4.65;100.00
70468;BME280;57934;51.532;7.684;2024-01-06T06:57:36;99369.97;;;4.68;100.00
70468;BME280;57934;51.532;7.684;2024-01-06T07:00:02;99374.28;;;4.61;100.00
70468;BME280;57934;51.532;7.684;2024-01-06T07:02:29;99376.91;;;4.61;100.00
70468;BME280;57934;51.532;7.684;2024-01-06T07:04:55;99384.09;;;4.59;100.00
70468;BME280;57934;51.532;7.684;2024-01-06T07:07:21;99389.31;;;4.59;100.00
70468;BME280;57934;51.532;7.684;2024-01-06T07:09:48;99388.59;;;4.65;100.00
70468;BME280;57934;51.532;7.684;2024-01-06T07:12:14;99396.22;;;4.51;100.00
70468;BME280;57934;51.532;7.684;2024-01-06T07:14:41;99390.38;;;4.49;100.00
70468;BME280;57934;51.532;7.684;2024-01-06T07:17:08;99405.25;;;4.64;100.00
70468;BME280;57934;51.532;7.684;2024-01-06T07:19:35;99405.50;;;4.54;100.00
70468;BME280;57934;51.532;7.684;2024-01-06T07:22:01;99413.00;;;4.57;100.00
70468;BME280;57934;51.532;7.684;2024-01-06T07:24:27;99418.44;;;4.47;100.00
70468;BME280;57934;51.532;7.684;2024-01-06T07:26:53;99420.34;;;4.53;100.00
70468;BME280;57934;51.532;7.684;2024-01-06T07:29:19;99421.06;;;4.47;100.00
70468;BME280;57934;51.532;7.684;2024-01-06T07:31:46;99423.13;;;4.52;100.00
70468;BME280;57934;51.532;7.684;2024-01-06T07:34:13;99424.94;;;4.51;100.00
70468;BME280;57934;51.532;7.684;2024-01-06T07:36:39;99440.00;;;4.41;100.00
70468;BME280;57934;51.532;7.684;2024-01-06T07:39:05;99444.28;;;4.42;100.00
70468;BME280;57934;51.532;7.684;2024-01-06T07:41:32;99444.28;;;4.42;100.00
70468;BME280;57934;51.532;7.684;2024-01-06T07:43:59;99450.56;;;4.48;100.00
70468;BME280;57934;51.532;7.684;2024-01-06T07:46:27;99450.91;;;4.45;100.00
70468;BME280;57934;51.532;7.684;2024-01-06T07:48:53;99459.31;;;4.55;100.00
70468;BME280;57934;51.532;7.684;2024-01-06T07:51:19;99457.72;;;4.54;100.00
70468;BME280;57934;51.532;7.684;2024-01-06T07:53:45;99463.47;;;4.49;100.00
70468;BME280;57934;51.532;7.684;2024-01-06T07:56:11;99463.84;;;4.38;100.00
70468;BME280;57934;51.532;7.684;2024-01-06T07:58:38;99470.00;;;4.45;100.00
70468;BME280;57934;51.532;7.684;2024-01-06T08:01:04;99469.41;;;4.35;100.00
70468;BME280;57934;51.532;7.684;2024-01-06T08:03:31;99487.00;;;4.41;100.00
70468;BME280;57934;51.532;7.684;2024-01-06T08:05:57;99486.66;;;4.44;100.00
70468;BME280;57934;51.532;7.684;2024-01-06T08:08:23;99486.78;;;4.20;100.00
70468;BME280;57934;51.532;7.684;2024-01-06T08:10:50;99492.69;;;4.14;100.00
70468;BME280;57934;51.532;7.684;2024-01-06T08:13:16;99501.63;;;4.19;100.00
70468;BME280;57934;51.532;7.684;2024-01-06T08:15:42;99496.09;;;4.22;100.00
70468;BME280;57934;51.532;7.684;2024-01-06T08:18:08;99505.84;;;4.28;100.00
70468;BME280;57934;51.532;7.684;2024-01-06T08:20:35;99507.00;;;4.26;100.00
70468;BME280;57934;51.532;7.684;2024-01-06T08:23:01;99512.94;;;4.12;100.00
70468;BME280;57934;51.532;7.684;2024-01-06T08:25:27;99524.34;;;4.11;100.00
70468;BME280;57934;51.532;7.684;2024-01-06T08:27:53;99535.09;;;4.16;100.00
70468;BME280;57934;51.532;7.684;2024-01-06T08:30:19;99537.16;;;4.28;100.00
70468;BME280;57934;51.532;7.684;2024-01-06T08:32:45;99536.63;;;4.33;100.00
70468;BME280;57934;51.532;7.684;2024-01-06T08:35:12;99536.09;;;4.06;100.00
70468;BME280;57934;51.532;7.684;2024-01-06T08:37:39;99543.28;;;4.04;100.00
70468;BME280;57934;51.532;7.684;2024-01-06T08:40:05;99547.53;;;4.05;100.00
70468;BME280;57934;51.532;7.684;2024-01-06T08:42:32;99543.31;;;3.96;100.00
70468;BME280;57934;51.532;7.684;2024-01-06T08:44:59;99550.97;;;3.98;100.00
70468;BME280;57934;51.532;7.684;2024-01-06T08:47:25;99552.91;;;4.04;100.00
70468;BME280;57934;51.532;7.684;2024-01-06T08:49:51;99564.22;;;3.88;100.00
70468;BME280;57934;51.532;7.684;2024-01-06T08:52:17;99562.91;;;3.84;100.00
70468;BME280;57934;51.532;7.684;2024-01-06T08:54:43;99572.94;;;4.03;100.00
70468;BME280;57934;51.532;7.684;2024-01-06T08:57:10;99573.31;;;3.92;100.00
70468;BME280;57934;51.532;7.684;2024-01-06T08:59:36;99578.16;;;4.03;100.00
70468;BME280;57934;51.532;7.684;2024-01-06T09:02:04;99583.38;;;4.03;100.00
70468;BME280;57934;51.532;7.684;2024-01-06T09:04:30;99584.03;;;4.05;100.00
70468;BME280;57934;51.532;7.684;2024-01-06T09:06:57;99595.81;;;3.93;100.00
70468;BME280;57934;51.532;7.684;2024-01-06T09:09:23;99590.91;;;3.98;100.00
70468;BME280;57934;51.532;7.684;2024-01-06T09:11:49;99596.94;;;3.99;100.00
70468;BME280;57934;51.532;7.684;2024-01-06T09:14:18;99602.66;;;3.94;100.00
70468;BME280;57934;51.532;7.684;2024-01-06T09:16:44;99600.53;;;3.98;100.00
70468;BME280;57934;51.532;7.684;2024-01-06T09:19:10;99598.56;;;4.08;100.00
70468;BME280;57934;51.532;7.684;2024-01-06T09:21:38;99603.56;;;4.18;100.00
70468;BME280;57934;51.532;7.684;2024-01-06T09:24:04;99602.06;;;4.23;100.00
70468;BME280;57934;51.532;7.684;2024-01-06T09:26:32;99608.44;;;4.21;100.00
70468;BME280;57934;51.532;7.684;2024-01-06T09:29:01;99608.44;;;4.21;100.00
70468;BME280;57934;51.532;7.684;2024-01-06T09:31:29;99615.63;;;4.11;100.00
70468;BME280;57934;51.532;7.684;2024-01-06T09:33:55;99611.06;;;4.13;100.00
70468;BME280;57934;51.532;7.684;2024-01-06T09:36:23;99616.78;;;4.16;100.00
70468;BME280;57934;51.532;7.684;2024-01-06T09:38:49;99628.53;;;4.12;100.00
70468;BME280;57934;51.532;7.684;2024-01-06T09:41:15;99629.00;;;4.16;100.00
70468;BME280;57934;51.532;7.684;2024-01-06T09:43:41;99632.56;;;4.23;100.00
70468;BME280;57934;51.532;7.684;2024-01-06T09:46:26;99642.53;;;4.19;100.00
70468;BME280;57934;51.532;7.684;2024-01-06T09:48:53;99644.00;;;4.14;100.00
70468;BME280;57934;51.532;7.684;2024-01-06T09:51:20;99644.00;;;4.22;100.00
70468;BME280;57934;51.532;7.684;2024-01-06T09:53:57;99647.78;;;4.03;100.00
70468;BME280;57934;51.532;7.684;2024-01-06T09:56:25;99656.44;;;3.95;100.00
70468;BME280;57934;51.532;7.684;2024-01-06T09:58:52;99659.84;;;3.96;100.00
70468;BME280;57934;51.532;7.684;2024-01-06T10:01:18;99664.44;;;3.94;100.00
70468;BME280;57934;51.532;7.684;2024-01-06T10:03:44;99668.00;;;3.93;100.00
70468;BME280;57934;51.532;7.684;2024-01-06T10:06:14;99668.69;;;3.95;100.00
70468;BME280;57934;51.532;7.684;2024-01-06T10:08:47;99676.16;;;3.98;100.00
70468;BME280;57934;51.532;7.684;2024-01-06T10:11:13;99682.50;;;4.03;100.00
70468;BME280;57934;51.532;7.684;2024-01-06T10:13:41;99685.31;;;3.94;100.00
70468;BME280;57934;51.532;7.684;2024-01-06T10:16:07;99685.94;;;4.04;100.00
70468;BME280;57934;51.532;7.684;2024-01-06T10:18:34;99691.16;;;3.96;100.00
70468;BME280;57934;51.532;7.684;2024-01-06T10:21:05;99687.91;;;4.02;100.00
70468;BME280;57934;51.532;7.684;2024-01-06T10:23:32;99687.75;;;3.95;100.00
70468;BME280;57934;51.532;7.684;2024-01-06T10:25:59;99690.19;;;3.97;100.00
70468;BME280;57934;51.532;7.684;2024-01-06T10:28:25;99698.03;;;3.72;100.00
70468;BME280;57934;51.532;7.684;2024-01-06T10:30:52;99694.63;;;3.55;100.00
70468;BME280;57934;51.532;7.684;2024-01-06T10:33:22;99696.38;;;3.39;100.00
70468;BME280;57934;51.532;7.684;2024-01-06T10:35:49;99699.66;;;3.41;100.00
70468;BME280;57934;51.532;7.684;2024-01-06T10:38:16;99700.44;;;3.25;100.00
70468;BME280;57934;51.532;7.684;2024-01-06T10:40:58;99696.22;;;3.32;100.00
70468;BME280;57934;51.532;7.684;2024-01-06T10:43:26;99704.84;;;3.32;100.00
70468;BME280;57934;51.532;7.684;2024-01-06T10:45:56;99699.44;;;3.26;100.00
70468;BME280;57934;51.532;7.684;2024-01-06T10:48:28;99705.66;;;3.17;100.00
70468;BME280;57934;51.532;7.684;2024-01-06T10:50:56;99699.63;;;3.32;100.00
70468;BME280;57934;51.532;7.684;2024-01-06T10:53:23;99702.09;;;3.42;100.00
70468;BME280;57934;51.532;7.684;2024-01-06T10:55:52;99699.47;;;3.42;100.00
70468;BME280;57934;51.532;7.684;2024-01-06T10:58:18;99703.41;;;3.38;100.00
70468;BME280;57934;51.532;7.684;2024-01-06T11:00:45;99704.34;;;3.29;100.00
70468;BME280;57934;51.532;7.684;2024-01-06T11:03:13;99711.34;;;3.20;100.00
70468;BME280;57934;51.532;7.684;2024-01-06T11:05:41;99708.25;;;3.33;100.00
70468;BME280;57934;51.532;7.684;2024-01-06T11:08:08;99715.25;;;3.24;100.00
70468;BME280;57934;51.532;7.684;2024-01-06T11:10:35;99706.94;;;3.21;100.00
70468;BME280;57934;51.532;7.684;2024-01-06T11:13:13;99702.22;;;3.32;100.00
70468;BME280;57934;51.532;7.684;2024-01-06T11:18:09;99700.44;;;3.25;100.00
70468;BME280;57934;51.532;7.684;2024-01-06T11:20:35;99703.34;;;3.14;100.00
70468;BME280;57934;51.532;7.684;2024-01-06T11:23:18;99707.09;;;3.19;100.00
70468;BME280;57934;51.532;7.684;2024-01-06T11:25:46;99713.59;;;3.15;100.00
70468;BME280;57934;51.532;7.684;2024-01-06T11:28:12;99712.59;;;3.00;100.00
70468;BME280;57934;51.532;7.684;2024-01-06T11:30:38;99714.84;;;2.95;100.00
70468;BME280;57934;51.532;7.684;2024-01-06T11:33:06;99714.81;;;2.86;100.00
70468;BME280;57934;51.532;7.684;2024-01-06T11:35:34;99712.28;;;3.11;100.00
70468;BME280;57934;51.532;7.684;2024-01-06T11:38:03;99708.00;;;2.85;100.00
70468;BME280;57934;51.532;7.684;2024-01-06T11:40:34;99710.13;;;2.90;100.00
70468;BME280;57934;51.532;7.684;2024-01-06T11:43:09;99713.53;;;2.91;100.00
70468;BME280;57934;51.532;7.684;2024-01-06T11:45:35;99712.47;;;3.09;100.00
70468;BME280;57934;51.532;7.684;2024-01-06T11:48:06;99715.69;;;3.03;100.00
70468;BME280;57934;51.532;7.684;2024-01-06T11:50:35;99716.69;;;3.02;100.00
70468;BME280;57934;51.532;7.684;2024-01-06T11:53:02;99714.34;;;2.91;100.00
70468;BME280;57934;51.532;7.684;2024-01-06T11:55:29;99715.06;;;3.09;100.00
70468;BME280;57934;51.532;7.684;2024-01-06T11:57:58;99716.03;;;3.08;100.00
70468;BME280;57934;51.532;7.684;2024-01-06T12:00:29;99720.53;;;2.98;100.00
70468;BME280;57934;51.532;7.684;2024-01-06T12:02:59;99723.50;;;3.03;100.00
70468;BME280;57934;51.532;7.684;2024-01-06T12:05:28;99719.53;;;2.91;100.00
70468;BME280;57934;51.532;7.684;2024-01-06T12:07:56;99721.38;;;2.99;100.00
70468;BME280;57934;51.532;7.684;2024-01-06T12:10:22;99728.84;;;3.02;100.00
70468;BME280;57934;51.532;7.684;2024-01-06T12:13:01;99727.59;;;3.06;100.00
70468;BME280;57934;51.532;7.684;2024-01-06T12:15:30;99728.84;;;2.94;100.00
70468;BME280;57934;51.532;7.684;2024-01-06T12:17:58;99732.75;;;2.55;100.00
70468;BME280;57934;51.532;7.684;2024-01-06T12:20:26;99731.97;;;2.63;100.00
70468;BME280;57934;51.532;7.684;2024-01-06T12:22:53;99732.13;;;2.61;100.00
70468;BME280;57934;51.532;7.684;2024-01-06T12:25:23;99729.88;;;2.67;100.00
70468;BME280;57934;51.532;7.684;2024-01-06T12:27:52;99718.63;;;2.66;100.00
70468;BME280;57934;51.532;7.684;2024-01-06T12:30:21;99728.47;;;2.80;100.00
70468;BME280;57934;51.532;7.684;2024-01-06T12:32:49;99734.72;;;2.96;100.00
70468;BME280;57934;51.532;7.684;2024-01-06T12:35:16;99729.34;;;2.97;100.00
70468;BME280;57934;51.532;7.684;2024-01-06T12:37:42;99731.63;;;3.00;100.00
70468;BME280;57934;51.532;7.684;2024-01-06T12:40:12;99734.59;;;3.14;100.00
70468;BME280;57934;51.532;7.684;2024-01-06T12:42:39;99733.03;;;2.86;100.00
70468;BME280;57934;51.532;7.684;2024-01-06T12:45:06;99730.81;;;3.00;100.00
70468;BME280;57934;51.532;7.684;2024-01-06T12:47:33;99743.34;;;3.04;100.00
70468;BME280;57934;51.532;7.684;2024-01-06T12:49:59;99742.97;;;2.91;100.00
70468;BME280;57934;51.532;7.684;2024-01-06T12:52:27;99747.66;;;2.79;100.00
70468;BME280;57934;51.532;7.684;2024-01-06T12:54:53;99756.22;;;2.63;100.00
70468;BME280;57934;51.532;7.684;2024-01-06T12:57:19;99756.44;;;2.78;100.00
70468;BME280;57934;51.532;7.684;2024-01-06T12:59:46;99755.94;;;2.75;100.00
70468;BME280;57934;51.532;7.684;2024-01-06T13:02:13;99763.88;;;2.99;100.00